Terminal Aerodrome Forecast
Issued by NWS

Home | Current Version | Previous Version | Text Only | Print | Product List | Glossary On
Versions: 1 2 3 4 5 6 7 8 9 10 11 12 13 14 15 16 17 18 19 20 21 22 23 24 25 26 27 28 29
000
FTUS42 KILM 161100
TAFCRE
TAF
KCRE 161120Z 1612/1712 00000KT P6SM VCSH OVC040
     FM161500 02005KT P6SM BKN020 BKN100
     FM161800 15006KT P6SM VCSH SCT035 BKN250
     FM170800 02004KT 4SM BR BKN010=

USA.gov is the U.S. government's official web portal to all federal, state and local government web resources and services.